sensor_id;sensor_type;location;lat;lon;timestamp;P1;durP1;ratioP1;P2;durP2;ratioP2
75620;SDS011;64574;48.506;-2.750;2023-08-31T00:09:15;6.45;;;1.38;;
75620;SDS011;64574;48.506;-2.750;2023-08-31T00:11:41;8.63;;;3.05;;
75620;SDS011;64574;48.506;-2.750;2023-08-31T00:14:07;7.10;;;2.45;;
75620;SDS011;64574;48.506;-2.750;2023-08-31T00:16:32;8.05;;;1.42;;
75620;SDS011;64574;48.506;-2.750;2023-08-31T00:18:58;7.43;;;1.75;;
75620;SDS011;64574;48.506;-2.750;2023-08-31T00:21:24;10.27;;;1.73;;
75620;SDS011;64574;48.506;-2.750;2023-08-31T00:23:50;6.97;;;1.58;;
75620;SDS011;64574;48.506;-2.750;2023-08-31T00:26:16;7.60;;;1.77;;
75620;SDS011;64574;48.506;-2.750;2023-08-31T00:28:41;8.32;;;1.63;;
75620;SDS011;64574;48.506;-2.750;2023-08-31T00:31:09;7.00;;;1.90;;
75620;SDS011;64574;48.506;-2.750;2023-08-31T00:33:35;8.80;;;2.00;;
75620;SDS011;64574;48.506;-2.750;2023-08-31T00:36:03;9.25;;;1.60;;
75620;SDS011;64574;48.506;-2.750;2023-08-31T00:38:29;4.57;;;1.60;;
75620;SDS011;64574;48.506;-2.750;2023-08-31T00:40:57;5.68;;;1.50;;
75620;SDS011;64574;48.506;-2.750;2023-08-31T00:43:23;7.53;;;1.85;;
75620;SDS011;64574;48.506;-2.750;2023-08-31T00:45:49;6.28;;;1.50;;
75620;SDS011;64574;48.506;-2.750;2023-08-31T00:48:17;8.45;;;1.55;;
75620;SDS011;64574;48.506;-2.750;2023-08-31T00:50:46;5.97;;;1.60;;
75620;SDS011;64574;48.506;-2.750;2023-08-31T00:53:13;9.13;;;2.15;;
75620;SDS011;64574;48.506;-2.750;2023-08-31T00:55:40;5.20;;;1.30;;
75620;SDS011;64574;48.506;-2.750;2023-08-31T00:58:07;7.30;;;1.40;;
75620;SDS011;64574;48.506;-2.750;2023-08-31T01:04:16;7.70;;;1.70;;
75620;SDS011;64574;48.506;-2.750;2023-08-31T01:14:25;6.38;;;1.83;;
75620;SDS011;64574;48.506;-2.750;2023-08-31T01:16:57;8.43;;;1.75;;
75620;SDS011;64574;48.506;-2.750;2023-08-31T01:19:43;6.32;;;1.75;;
75620;SDS011;64574;48.506;-2.750;2023-08-31T01:22:30;5.88;;;1.48;;
75620;SDS011;64574;48.506;-2.750;2023-08-31T01:25:05;9.90;;;2.03;;
75620;SDS011;64574;48.506;-2.750;2023-08-31T01:27:34;4.70;;;1.42;;
75620;SDS011;64574;48.506;-2.750;2023-08-31T01:30:04;9.48;;;1.67;;
75620;SDS011;64574;48.506;-2.750;2023-08-31T01:32:31;7.68;;;2.30;;
75620;SDS011;64574;48.506;-2.750;2023-08-31T01:34:57;4.80;;;1.80;;
75620;SDS011;64574;48.506;-2.750;2023-08-31T01:37:31;7.32;;;1.40;;
75620;SDS011;64574;48.506;-2.750;2023-08-31T01:40:14;7.75;;;1.63;;
75620;SDS011;64574;48.506;-2.750;2023-08-31T01:42:48;5.20;;;1.58;;
75620;SDS011;64574;48.506;-2.750;2023-08-31T01:45:17;7.80;;;1.77;;
75620;SDS011;64574;48.506;-2.750;2023-08-31T01:47:46;7.97;;;1.70;;
75620;SDS011;64574;48.506;-2.750;2023-08-31T01:50:11;7.57;;;1.58;;
75620;SDS011;64574;48.506;-2.750;2023-08-31T01:52:37;6.15;;;2.50;;
75620;SDS011;64574;48.506;-2.750;2023-08-31T01:55:03;6.32;;;1.83;;
75620;SDS011;64574;48.506;-2.750;2023-08-31T01:57:32;6.57;;;1.77;;
75620;SDS011;64574;48.506;-2.750;2023-08-31T01:59:58;8.50;;;1.88;;
75620;SDS011;64574;48.506;-2.750;2023-08-31T02:02:25;8.70;;;1.63;;
75620;SDS011;64574;48.506;-2.750;2023-08-31T02:04:50;9.43;;;1.67;;
75620;SDS011;64574;48.506;-2.750;2023-08-31T02:07:17;5.93;;;1.80;;
75620;SDS011;64574;48.506;-2.750;2023-08-31T02:09:42;6.00;;;1.55;;
75620;SDS011;64574;48.506;-2.750;2023-08-31T02:12:08;9.00;;;1.42;;
75620;SDS011;64574;48.506;-2.750;2023-08-31T02:14:37;11.43;;;2.25;;
75620;SDS011;64574;48.506;-2.750;2023-08-31T02:17:03;9.02;;;1.67;;
75620;SDS011;64574;48.506;-2.750;2023-08-31T02:19:29;6.82;;;1.70;;
75620;SDS011;64574;48.506;-2.750;2023-08-31T02:21:55;6.55;;;1.50;;
75620;SDS011;64574;48.506;-2.750;2023-08-31T02:24:21;7.28;;;1.42;;
75620;SDS011;64574;48.506;-2.750;2023-08-31T02:26:47;4.72;;;1.27;;
75620;SDS011;64574;48.506;-2.750;2023-08-31T02:29:13;7.18;;;2.13;;
75620;SDS011;64574;48.506;-2.750;2023-08-31T02:31:39;6.43;;;1.73;;
75620;SDS011;64574;48.506;-2.750;2023-08-31T02:34:04;5.35;;;1.45;;
75620;SDS011;64574;48.506;-2.750;2023-08-31T02:36:30;8.25;;;1.77;;
75620;SDS011;64574;48.506;-2.750;2023-08-31T02:38:56;9.52;;;1.85;;
75620;SDS011;64574;48.506;-2.750;2023-08-31T02:41:22;13.85;;;1.75;;
75620;SDS011;64574;48.506;-2.750;2023-08-31T02:43:50;8.57;;;1.92;;
75620;SDS011;64574;48.506;-2.750;2023-08-31T02:46:16;7.10;;;1.88;;
75620;SDS011;64574;48.506;-2.750;2023-08-31T02:48:43;4.68;;;1.55;;
75620;SDS011;64574;48.506;-2.750;2023-08-31T02:53:35;6.03;;;1.80;;
75620;SDS011;64574;48.506;-2.750;2023-08-31T02:56:01;7.38;;;2.05;;
75620;SDS011;64574;48.506;-2.750;2023-08-31T02:58:27;7.72;;;1.70;;
75620;SDS011;64574;48.506;-2.750;2023-08-31T03:00:52;9.82;;;2.03;;
75620;SDS011;64574;48.506;-2.750;2023-08-31T03:03:18;7.55;;;1.63;;
75620;SDS011;64574;48.506;-2.750;2023-08-31T03:05:44;8.15;;;1.73;;
75620;SDS011;64574;48.506;-2.750;2023-08-31T03:08:10;4.63;;;1.50;;
75620;SDS011;64574;48.506;-2.750;2023-08-31T03:10:36;6.57;;;1.67;;
75620;SDS011;64574;48.506;-2.750;2023-08-31T03:13:03;6.10;;;1.70;;
75620;SDS011;64574;48.506;-2.750;2023-08-31T03:15:29;6.88;;;1.77;;
75620;SDS011;64574;48.506;-2.750;2023-08-31T03:17:58;7.70;;;1.48;;
75620;SDS011;64574;48.506;-2.750;2023-08-31T03:20:24;5.10;;;1.33;;
75620;SDS011;64574;48.506;-2.750;2023-08-31T03:22:49;5.03;;;1.40;;
75620;SDS011;64574;48.506;-2.750;2023-08-31T03:25:15;4.38;;;1.40;;
75620;SDS011;64574;48.506;-2.750;2023-08-31T03:27:41;6.10;;;1.77;;
75620;SDS011;64574;48.506;-2.750;2023-08-31T03:30:07;5.13;;;1.63;;
75620;SDS011;64574;48.506;-2.750;2023-08-31T03:32:33;7.15;;;1.55;;
75620;SDS011;64574;48.506;-2.750;2023-08-31T03:34:58;6.07;;;1.75;;
75620;SDS011;64574;48.506;-2.750;2023-08-31T03:37:24;11.52;;;2.00;;
75620;SDS011;64574;48.506;-2.750;2023-08-31T03:39:50;4.93;;;1.92;;
75620;SDS011;64574;48.506;-2.750;2023-08-31T03:42:15;4.57;;;1.40;;
75620;SDS011;64574;48.506;-2.750;2023-08-31T03:44:41;8.25;;;1.55;;
75620;SDS011;64574;48.506;-2.750;2023-08-31T03:47:07;5.88;;;1.70;;
75620;SDS011;64574;48.506;-2.750;2023-08-31T03:49:32;7.53;;;1.60;;
75620;SDS011;64574;48.506;-2.750;2023-08-31T03:54:25;6.18;;;2.47;;
75620;SDS011;64574;48.506;-2.750;2023-08-31T03:56:51;5.18;;;1.65;;
75620;SDS011;64574;48.506;-2.750;2023-08-31T03:59:17;7.22;;;2.03;;
75620;SDS011;64574;48.506;-2.750;2023-08-31T04:01:43;6.30;;;2.25;;
75620;SDS011;64574;48.506;-2.750;2023-08-31T04:04:09;8.18;;;1.92;;
75620;SDS011;64574;48.506;-2.750;2023-08-31T04:06:35;7.00;;;2.50;;
75620;SDS011;64574;48.506;-2.750;2023-08-31T04:09:00;4.53;;;1.25;;
75620;SDS011;64574;48.506;-2.750;2023-08-31T04:11:26;4.97;;;1.45;;
75620;SDS011;64574;48.506;-2.750;2023-08-31T04:13:51;6.95;;;1.58;;
75620;SDS011;64574;48.506;-2.750;2023-08-31T04:16:17;5.10;;;1.52;;
75620;SDS011;64574;48.506;-2.750;2023-08-31T04:18:43;6.35;;;1.50;;
75620;SDS011;64574;48.506;-2.750;2023-08-31T04:23:35;6.43;;;1.30;;
75620;SDS011;64574;48.506;-2.750;2023-08-31T04:26:08;4.40;;;1.80;;
75620;SDS011;64574;48.506;-2.750;2023-08-31T04:28:35;4.10;;;1.20;;
75620;SDS011;64574;48.506;-2.750;2023-08-31T04:31:00;3.22;;;1.10;;
75620;SDS011;64574;48.506;-2.750;2023-08-31T04:33:29;4.22;;;0.95;;
75620;SDS011;64574;48.506;-2.750;2023-08-31T04:35:55;2.75;;;1.00;;
75620;SDS011;64574;48.506;-2.750;2023-08-31T04:38:20;3.83;;;1.10;;
75620;SDS011;64574;48.506;-2.750;2023-08-31T04:40:46;1.08;;;0.85;;
75620;SDS011;64574;48.506;-2.750;2023-08-31T04:43:11;1.90;;;0.90;;
75620;SDS011;64574;48.506;-2.750;2023-08-31T04:45:37;1.75;;;0.80;;
75620;SDS011;64574;48.506;-2.750;2023-08-31T04:48:03;1.83;;;0.90;;
75620;SDS011;64574;48.506;-2.750;2023-08-31T04:50:28;1.77;;;0.70;;
75620;SDS011;64574;48.506;-2.750;2023-08-31T04:52:55;1.90;;;0.80;;
75620;SDS011;64574;48.506;-2.750;2023-08-31T04:55:21;1.45;;;0.70;;
75620;SDS011;64574;48.506;-2.750;2023-08-31T04:57:47;1.35;;;0.57;;
75620;SDS011;64574;48.506;-2.750;2023-08-31T05:00:12;1.30;;;0.60;;
75620;SDS011;64574;48.506;-2.750;2023-08-31T05:02:38;2.15;;;0.68;;
75620;SDS011;64574;48.506;-2.750;2023-08-31T05:05:04;1.45;;;0.60;;
75620;SDS011;64574;48.506;-2.750;2023-08-31T05:07:30;1.63;;;0.60;;
75620;SDS011;64574;48.506;-2.750;2023-08-31T05:09:56;0.85;;;0.50;;
75620;SDS011;64574;48.506;-2.750;2023-08-31T05:12:22;1.35;;;0.57;;
75620;SDS011;64574;48.506;-2.750;2023-08-31T05:14:48;1.38;;;0.70;;
75620;SDS011;64574;48.506;-2.750;2023-08-31T05:17:13;1.67;;;0.60;;
75620;SDS011;64574;48.506;-2.750;2023-08-31T05:19:39;1.10;;;0.60;;
75620;SDS011;64574;48.506;-2.750;2023-08-31T05:22:05;1.27;;;0.55;;
75620;SDS011;64574;48.506;-2.750;2023-08-31T05:24:31;0.85;;;0.50;;
75620;SDS011;64574;48.506;-2.750;2023-08-31T05:26:57;1.13;;;0.50;;
75620;SDS011;64574;48.506;-2.750;2023-08-31T05:29:22;0.90;;;0.55;;
75620;SDS011;64574;48.506;-2.750;2023-08-31T05:31:48;1.13;;;0.60;;
75620;SDS011;64574;48.506;-2.750;2023-08-31T05:34:16;1.13;;;0.50;;
75620;SDS011;64574;48.506;-2.750;2023-08-31T05:36:45;0.40;;;0.40;;
75620;SDS011;64574;48.506;-2.750;2023-08-31T05:39:11;0.65;;;0.40;;
75620;SDS011;64574;48.506;-2.750;2023-08-31T05:41:39;1.02;;;0.50;;
75620;SDS011;64574;48.506;-2.750;2023-08-31T05:44:06;0.68;;;0.40;;
75620;SDS011;64574;48.506;-2.750;2023-08-31T05:46:32;0.90;;;0.50;;
75620;SDS011;64574;48.506;-2.750;2023-08-31T05:48:57;1.33;;;0.40;;
75620;SDS011;64574;48.506;-2.750;2023-08-31T05:51:23;0.93;;;0.40;;
75620;SDS011;64574;48.506;-2.750;2023-08-31T05:53:49;0.88;;;0.43;;
75620;SDS011;64574;48.506;-2.750;2023-08-31T05:56:14;0.55;;;0.40;;
75620;SDS011;64574;48.506;-2.750;2023-08-31T05:58:40;0.70;;;0.40;;
75620;SDS011;64574;48.506;-2.750;2023-08-31T06:01:06;0.43;;;0.30;;
75620;SDS011;64574;48.506;-2.750;2023-08-31T06:03:32;0.65;;;0.20;;
75620;SDS011;64574;48.506;-2.750;2023-08-31T06:05:58;0.32;;;0.20;;
75620;SDS011;64574;48.506;-2.750;2023-08-31T06:08:24;0.80;;;0.47;;
75620;SDS011;64574;48.506;-2.750;2023-08-31T06:10:50;0.75;;;0.35;;
75620;SDS011;64574;48.506;-2.750;2023-08-31T06:13:16;1.10;;;0.50;;
75620;SDS011;64574;48.506;-2.750;2023-08-31T06:15:41;0.70;;;0.40;;
75620;SDS011;64574;48.506;-2.750;2023-08-31T06:18:07;0.88;;;0.40;;
75620;SDS011;64574;48.506;-2.750;2023-08-31T06:20:32;0.70;;;0.30;;
75620;SDS011;64574;48.506;-2.750;2023-08-31T06:22:59;0.85;;;0.70;;
75620;SDS011;64574;48.506;-2.750;2023-08-31T06:25:24;0.60;;;0.30;;
75620;SDS011;64574;48.506;-2.750;2023-08-31T06:27:50;1.48;;;0.50;;
75620;SDS011;64574;48.506;-2.750;2023-08-31T06:30:16;0.98;;;0.50;;
75620;SDS011;64574;48.506;-2.750;2023-08-31T06:32:43;1.65;;;0.47;;
75620;SDS011;64574;48.506;-2.750;2023-08-31T06:35:10;2.23;;;0.60;;
75620;SDS011;64574;48.506;-2.750;2023-08-31T06:37:42;1.90;;;0.50;;
75620;SDS011;64574;48.506;-2.750;2023-08-31T06:40:09;1.27;;;0.60;;
75620;SDS011;64574;48.506;-2.750;2023-08-31T06:42:36;2.13;;;0.50;;
75620;SDS011;64574;48.506;-2.750;2023-08-31T06:45:05;3.40;;;0.70;;
75620;SDS011;64574;48.506;-2.750;2023-08-31T06:47:32;2.17;;;0.43;;
75620;SDS011;64574;48.506;-2.750;2023-08-31T06:49:58;1.95;;;0.60;;
75620;SDS011;64574;48.506;-2.750;2023-08-31T06:52:27;0.90;;;0.43;;
75620;SDS011;64574;48.506;-2.750;2023-08-31T06:54:53;1.88;;;0.50;;
75620;SDS011;64574;48.506;-2.750;2023-08-31T06:57:20;1.00;;;0.50;;
75620;SDS011;64574;48.506;-2.750;2023-08-31T06:59:47;1.35;;;0.50;;
75620;SDS011;64574;48.506;-2.750;2023-08-31T07:02:13;0.95;;;0.40;;
75620;SDS011;64574;48.506;-2.750;2023-08-31T07:04:39;1.33;;;0.50;;
75620;SDS011;64574;48.506;-2.750;2023-08-31T07:07:05;0.47;;;0.37;;
75620;SDS011;64574;48.506;-2.750;2023-08-31T07:09:31;3.07;;;0.50;;
75620;SDS011;64574;48.506;-2.750;2023-08-31T07:11:56;1.00;;;0.40;;
75620;SDS011;64574;48.506;-2.750;2023-08-31T07:14:23;0.93;;;0.50;;
75620;SDS011;64574;48.506;-2.750;2023-08-31T07:16:49;0.57;;;0.33;;
75620;SDS011;64574;48.506;-2.750;2023-08-31T07:19:15;0.70;;;0.40;;
75620;SDS011;64574;48.506;-2.750;2023-08-31T07:21:40;0.50;;;0.30;;
75620;SDS011;64574;48.506;-2.750;2023-08-31T07:24:06;0.45;;;0.20;;
75620;SDS011;64574;48.506;-2.750;2023-08-31T07:26:32;0.20;;;0.20;;
75620;SDS011;64574;48.506;-2.750;2023-08-31T07:28:59;0.57;;;0.30;;
75620;SDS011;64574;48.506;-2.750;2023-08-31T07:31:26;1.40;;;0.30;;
75620;SDS011;64574;48.506;-2.750;2023-08-31T07:33:52;0.30;;;0.20;;
75620;SDS011;64574;48.506;-2.750;2023-08-31T07:36:17;0.45;;;0.30;;
75620;SDS011;64574;48.506;-2.750;2023-08-31T07:38:43;0.43;;;0.20;;
75620;SDS011;64574;48.506;-2.750;2023-08-31T07:41:08;0.93;;;0.30;;
75620;SDS011;64574;48.506;-2.750;2023-08-31T07:43:34;1.02;;;0.20;;
75620;SDS011;64574;48.506;-2.750;2023-08-31T07:46:00;0.82;;;0.28;;
75620;SDS011;64574;48.506;-2.750;2023-08-31T07:48:25;0.50;;;0.20;;
75620;SDS011;64574;48.506;-2.750;2023-08-31T07:50:51;0.45;;;0.22;;
75620;SDS011;64574;48.506;-2.750;2023-08-31T07:53:16;0.63;;;0.25;;
75620;SDS011;64574;48.506;-2.750;2023-08-31T07:55:50;0.57;;;0.20;;
75620;SDS011;64574;48.506;-2.750;2023-08-31T07:58:16;0.30;;;0.20;;
75620;SDS011;64574;48.506;-2.750;2023-08-31T08:00:42;0.40;;;0.20;;
75620;SDS011;64574;48.506;-2.750;2023-08-31T08:03:07;0.47;;;0.22;;
75620;SDS011;64574;48.506;-2.750;2023-08-31T08:05:33;0.10;;;0.10;;
75620;SDS011;64574;48.506;-2.750;2023-08-31T08:07:59;0.20;;;0.10;;
75620;SDS011;64574;48.506;-2.750;2023-08-31T08:10:24;0.40;;;0.20;;
75620;SDS011;64574;48.506;-2.750;2023-08-31T08:12:50;0.15;;;0.15;;
75620;SDS011;64574;48.506;-2.750;2023-08-31T08:15:16;1.05;;;0.30;;
75620;SDS011;64574;48.506;-2.750;2023-08-31T08:17:41;0.30;;;0.20;;
75620;SDS011;64574;48.506;-2.750;2023-08-31T08:20:07;0.32;;;0.10;;
75620;SDS011;64574;48.506;-2.750;2023-08-31T08:22:34;0.30;;;0.20;;
75620;SDS011;64574;48.506;-2.750;2023-08-31T08:25:01;0.45;;;0.20;;
75620;SDS011;64574;48.506;-2.750;2023-08-31T08:27:27;0.30;;;0.30;;
75620;SDS011;64574;48.506;-2.750;2023-08-31T08:29:53;0.65;;;0.20;;
75620;SDS011;64574;48.506;-2.750;2023-08-31T08:32:19;0.35;;;0.13;;
75620;SDS011;64574;48.506;-2.750;2023-08-31T08:34:44;0.20;;;0.13;;
75620;SDS011;64574;48.506;-2.750;2023-08-31T08:37:10;2.67;;;0.30;;
75620;SDS011;64574;48.506;-2.750;2023-08-31T08:39:35;0.70;;;0.30;;
75620;SDS011;64574;48.506;-2.750;2023-08-31T08:42:02;1.40;;;0.40;;
75620;SDS011;64574;48.506;-2.750;2023-08-31T08:44:31;0.13;;;0.13;;
75620;SDS011;64574;48.506;-2.750;2023-08-31T08:47:01;0.45;;;0.20;;
75620;SDS011;64574;48.506;-2.750;2023-08-31T08:49:29;1.13;;;0.20;;
75620;SDS011;64574;48.506;-2.750;2023-08-31T08:51:56;0.75;;;0.20;;
75620;SDS011;64574;48.506;-2.750;2023-08-31T08:54:22;0.68;;;0.40;;
75620;SDS011;64574;48.506;-2.750;2023-08-31T08:56:47;0.73;;;0.20;;
75620;SDS011;64574;48.506;-2.750;2023-08-31T08:59:13;0.43;;;0.20;;
75620;SDS011;64574;48.506;-2.750;2023-08-31T09:01:39;1.17;;;0.20;;
75620;SDS011;64574;48.506;-2.750;2023-08-31T09:04:05;1.20;;;0.25;;
75620;SDS011;64574;48.506;-2.750;2023-08-31T09:08:57;1.23;;;0.30;;
75620;SDS011;64574;48.506;-2.750;2023-08-31T09:11:23;1.25;;;0.30;;
75620;SDS011;64574;48.506;-2.750;2023-08-31T09:18:56;0.65;;;0.30;;
75620;SDS011;64574;48.506;-2.750;2023-08-31T09:21:44;2.25;;;0.40;;
75620;SDS011;64574;48.506;-2.750;2023-08-31T09:24:10;1.85;;;0.30;;
75620;SDS011;64574;48.506;-2.750;2023-08-31T09:26:43;2.15;;;0.60;;
75620;SDS011;64574;48.506;-2.750;2023-08-31T09:29:09;2.45;;;0.40;;
75620;SDS011;64574;48.506;-2.750;2023-08-31T09:31:35;2.42;;;0.50;;
75620;SDS011;64574;48.506;-2.750;2023-08-31T09:34:00;1.48;;;0.50;;
75620;SDS011;64574;48.506;-2.750;2023-08-31T09:36:26;4.55;;;0.65;;
75620;SDS011;64574;48.506;-2.750;2023-08-31T09:38:56;2.30;;;0.60;;
75620;SDS011;64574;48.506;-2.750;2023-08-31T09:41:23;1.42;;;0.50;;
75620;SDS011;64574;48.506;-2.750;2023-08-31T09:43:49;1.65;;;0.70;;
75620;SDS011;64574;48.506;-2.750;2023-08-31T09:46:15;1.92;;;0.52;;
75620;SDS011;64574;48.506;-2.750;2023-08-31T09:48:41;2.78;;;0.80;;
75620;SDS011;64574;48.506;-2.750;2023-08-31T09:51:07;1.77;;;0.50;;
75620;SDS011;64574;48.506;-2.750;2023-08-31T09:53:36;2.30;;;0.60;;
75620;SDS011;64574;48.506;-2.750;2023-08-31T09:56:04;1.63;;;0.80;;
75620;SDS011;64574;48.506;-2.750;2023-08-31T09:58:31;4.35;;;1.00;;
75620;SDS011;64574;48.506;-2.750;2023-08-31T10:00:58;3.30;;;1.23;;
75620;SDS011;64574;48.506;-2.750;2023-08-31T10:03:24;3.50;;;1.30;;
75620;SDS011;64574;48.506;-2.750;2023-08-31T10:05:52;3.47;;;1.03;;
75620;SDS011;64574;48.506;-2.750;2023-08-31T10:08:19;3.55;;;1.15;;
75620;SDS011;64574;48.506;-2.750;2023-08-31T10:10:48;4.00;;;1.00;;
75620;SDS011;64574;48.506;-2.750;2023-08-31T10:13:14;4.60;;;1.27;;
75620;SDS011;64574;48.506;-2.750;2023-08-31T10:15:43;4.13;;;1.35;;
75620;SDS011;64574;48.506;-2.750;2023-08-31T10:18:09;4.57;;;1.23;;
75620;SDS011;64574;48.506;-2.750;2023-08-31T10:20:34;5.33;;;1.17;;
75620;SDS011;64574;48.506;-2.750;2023-08-31T10:23:06;4.13;;;1.30;;
75620;SDS011;64574;48.506;-2.750;2023-08-31T10:28:17;2.95;;;1.00;;
75620;SDS011;64574;48.506;-2.750;2023-08-31T10:31:02;4.80;;;1.20;;
75620;SDS011;64574;48.506;-2.750;2023-08-31T10:33:32;3.22;;;1.20;;
75620;SDS011;64574;48.506;-2.750;2023-08-31T10:36:19;4.07;;;1.15;;
75620;SDS011;64574;48.506;-2.750;2023-08-31T10:38:46;3.35;;;1.10;;
75620;SDS011;64574;48.506;-2.750;2023-08-31T10:41:21;4.38;;;1.30;;
75620;SDS011;64574;48.506;-2.750;2023-08-31T10:43:54;3.88;;;1.20;;
75620;SDS011;64574;48.506;-2.750;2023-08-31T10:46:27;4.10;;;1.20;;
75620;SDS011;64574;48.506;-2.750;2023-08-31T10:48:58;5.28;;;1.30;;
75620;SDS011;64574;48.506;-2.750;2023-08-31T10:51:30;5.97;;;1.40;;
75620;SDS011;64574;48.506;-2.750;2023-08-31T10:56:31;4.13;;;1.20;;
75620;SDS011;64574;48.506;-2.750;2023-08-31T10:58:58;5.70;;;1.48;;
75620;SDS011;64574;48.506;-2.750;2023-08-31T11:04:22;3.40;;;1.15;;
75620;SDS011;64574;48.506;-2.750;2023-08-31T11:06:48;3.97;;;1.20;;
75620;SDS011;64574;48.506;-2.750;2023-08-31T11:09:18;4.68;;;1.30;;
75620;SDS011;64574;48.506;-2.750;2023-08-31T11:11:45;5.13;;;1.60;;
75620;SDS011;64574;48.506;-2.750;2023-08-31T11:14:11;4.85;;;1.17;;
75620;SDS011;64574;48.506;-2.750;2023-08-31T11:16:39;3.67;;;1.15;;
75620;SDS011;64574;48.506;-2.750;2023-08-31T11:19:05;3.08;;;1.00;;
75620;SDS011;64574;48.506;-2.750;2023-08-31T11:21:31;2.95;;;1.08;;
75620;SDS011;64574;48.506;-2.750;2023-08-31T11:23:57;5.78;;;1.20;;
75620;SDS011;64574;48.506;-2.750;2023-08-31T11:26:26;5.68;;;1.45;;
75620;SDS011;64574;48.506;-2.750;2023-08-31T11:28:55;2.88;;;0.95;;
75620;SDS011;64574;48.506;-2.750;2023-08-31T11:31:24;3.80;;;1.10;;
75620;SDS011;64574;48.506;-2.750;2023-08-31T11:33:51;3.75;;;1.10;;
75620;SDS011;64574;48.506;-2.750;2023-08-31T11:36:16;4.20;;;0.90;;
75620;SDS011;64574;48.506;-2.750;2023-08-31T11:38:47;3.78;;;1.23;;
75620;SDS011;64574;48.506;-2.750;2023-08-31T11:41:13;4.80;;;1.38;;
75620;SDS011;64574;48.506;-2.750;2023-08-31T11:43:39;3.83;;;1.33;;
75620;SDS011;64574;48.506;-2.750;2023-08-31T11:46:05;2.65;;;1.23;;
75620;SDS011;64574;48.506;-2.750;2023-08-31T11:48:32;3.13;;;1.15;;
75620;SDS011;64574;48.506;-2.750;2023-08-31T11:50:58;2.95;;;0.90;;
75620;SDS011;64574;48.506;-2.750;2023-08-31T11:53:24;5.75;;;1.17;;
75620;SDS011;64574;48.506;-2.750;2023-08-31T11:55:52;4.30;;;1.33;;
75620;SDS011;64574;48.506;-2.750;2023-08-31T11:58:21;4.50;;;1.10;;
75620;SDS011;64574;48.506;-2.750;2023-08-31T12:00:58;3.90;;;0.95;;
75620;SDS011;64574;48.506;-2.750;2023-08-31T12:03:25;3.45;;;1.25;;
75620;SDS011;64574;48.506;-2.750;2023-08-31T12:08:26;5.20;;;1.48;;
75620;SDS011;64574;48.506;-2.750;2023-08-31T12:10:53;2.83;;;0.80;;
75620;SDS011;64574;48.506;-2.750;2023-08-31T12:13:20;3.40;;;1.08;;
75620;SDS011;64574;48.506;-2.750;2023-08-31T12:15:53;4.10;;;1.20;;
75620;SDS011;64574;48.506;-2.750;2023-08-31T12:18:19;3.22;;;1.02;;
75620;SDS011;64574;48.506;-2.750;2023-08-31T12:20:51;4.97;;;1.00;;
75620;SDS011;64574;48.506;-2.750;2023-08-31T12:23:18;3.92;;;1.15;;
75620;SDS011;64574;48.506;-2.750;2023-08-31T12:25:49;3.63;;;0.93;;
75620;SDS011;64574;48.506;-2.750;2023-08-31T12:28:16;3.65;;;1.05;;
75620;SDS011;64574;48.506;-2.750;2023-08-31T12:30:45;3.50;;;0.93;;
75620;SDS011;64574;48.506;-2.750;2023-08-31T12:33:18;3.88;;;1.02;;
75620;SDS011;64574;48.506;-2.750;2023-08-31T12:35:44;5.97;;;1.00;;
75620;SDS011;64574;48.506;-2.750;2023-08-31T12:38:09;4.93;;;0.95;;
75620;SDS011;64574;48.506;-2.750;2023-08-31T12:40:36;3.92;;;1.10;;
75620;SDS011;64574;48.506;-2.750;2023-08-31T12:43:03;3.65;;;1.30;;
75620;SDS011;64574;48.506;-2.750;2023-08-31T12:45:30;3.50;;;0.82;;
75620;SDS011;64574;48.506;-2.750;2023-08-31T12:47:56;3.42;;;1.00;;
75620;SDS011;64574;48.506;-2.750;2023-08-31T12:50:21;4.38;;;1.17;;
75620;SDS011;64574;48.506;-2.750;2023-08-31T12:52:48;5.15;;;1.20;;
75620;SDS011;64574;48.506;-2.750;2023-08-31T12:55:13;5.53;;;1.10;;
75620;SDS011;64574;48.506;-2.750;2023-08-31T12:57:40;4.20;;;1.20;;
75620;SDS011;64574;48.506;-2.750;2023-08-31T13:00:09;3.75;;;1.02;;
75620;SDS011;64574;48.506;-2.750;2023-08-31T13:02:38;2.72;;;1.00;;
75620;SDS011;64574;48.506;-2.750;2023-08-31T13:05:05;3.65;;;0.95;;
75620;SDS011;64574;48.506;-2.750;2023-08-31T13:07:31;4.03;;;1.00;;
75620;SDS011;64574;48.506;-2.750;2023-08-31T13:09:59;2.53;;;1.00;;
75620;SDS011;64574;48.506;-2.750;2023-08-31T13:12:25;3.25;;;0.90;;
75620;SDS011;64574;48.506;-2.750;2023-08-31T13:14:50;4.38;;;0.90;;
75620;SDS011;64574;48.506;-2.750;2023-08-31T13:17:16;3.88;;;1.00;;
75620;SDS011;64574;48.506;-2.750;2023-08-31T13:19:41;7.40;;;1.00;;
75620;SDS011;64574;48.506;-2.750;2023-08-31T13:22:07;6.43;;;1.10;;
75620;SDS011;64574;48.506;-2.750;2023-08-31T13:24:33;4.80;;;0.85;;
75620;SDS011;64574;48.506;-2.750;2023-08-31T13:26:58;4.32;;;1.10;;
75620;SDS011;64574;48.506;-2.750;2023-08-31T13:29:24;2.45;;;0.90;;
75620;SDS011;64574;48.506;-2.750;2023-08-31T13:31:50;5.32;;;1.23;;
75620;SDS011;64574;48.506;-2.750;2023-08-31T13:34:15;4.57;;;1.08;;
75620;SDS011;64574;48.506;-2.750;2023-08-31T13:36:41;3.70;;;0.93;;
75620;SDS011;64574;48.506;-2.750;2023-08-31T13:39:06;5.50;;;1.15;;
75620;SDS011;64574;48.506;-2.750;2023-08-31T13:41:33;3.75;;;1.38;;
75620;SDS011;64574;48.506;-2.750;2023-08-31T13:43:58;5.82;;;1.02;;
75620;SDS011;64574;48.506;-2.750;2023-08-31T13:46:24;5.50;;;1.10;;
75620;SDS011;64574;48.506;-2.750;2023-08-31T13:48:50;3.28;;;0.90;;
75620;SDS011;64574;48.506;-2.750;2023-08-31T13:51:15;6.90;;;1.17;;
75620;SDS011;64574;48.506;-2.750;2023-08-31T13:53:41;3.60;;;1.10;;
75620;SDS011;64574;48.506;-2.750;2023-08-31T13:56:06;4.30;;;1.02;;
75620;SDS011;64574;48.506;-2.750;2023-08-31T13:58:32;4.68;;;1.38;;
75620;SDS011;64574;48.506;-2.750;2023-08-31T14:01:00;4.32;;;0.80;;
75620;SDS011;64574;48.506;-2.750;2023-08-31T14:03:28;2.97;;;0.80;;
75620;SDS011;64574;48.506;-2.750;2023-08-31T14:05:54;4.53;;;1.10;;
75620;SDS011;64574;48.506;-2.750;2023-08-31T14:08:19;5.65;;;1.30;;
75620;SDS011;64574;48.506;-2.750;2023-08-31T14:10:45;4.17;;;1.10;;
75620;SDS011;64574;48.506;-2.750;2023-08-31T14:13:11;4.97;;;1.40;;
75620;SDS011;64574;48.506;-2.750;2023-08-31T14:15:36;4.43;;;1.23;;
75620;SDS011;64574;48.506;-2.750;2023-08-31T14:18:09;4.18;;;0.88;;
75620;SDS011;64574;48.506;-2.750;2023-08-31T14:20:35;3.88;;;1.00;;
75620;SDS011;64574;48.506;-2.750;2023-08-31T14:23:00;4.78;;;1.10;;
75620;SDS011;64574;48.506;-2.750;2023-08-31T14:25:26;2.90;;;1.00;;
75620;SDS011;64574;48.506;-2.750;2023-08-31T14:27:51;5.80;;;1.03;;
75620;SDS011;64574;48.506;-2.750;2023-08-31T14:30:17;4.25;;;1.10;;
75620;SDS011;64574;48.506;-2.750;2023-08-31T14:32:42;4.13;;;0.93;;
75620;SDS011;64574;48.506;-2.750;2023-08-31T14:35:08;3.73;;;1.00;;
75620;SDS011;64574;48.506;-2.750;2023-08-31T14:37:34;4.55;;;0.93;;
75620;SDS011;64574;48.506;-2.750;2023-08-31T14:39:59;3.47;;;0.90;;
75620;SDS011;64574;48.506;-2.750;2023-08-31T14:42:25;3.33;;;1.00;;
75620;SDS011;64574;48.506;-2.750;2023-08-31T14:44:50;2.53;;;1.00;;
75620;SDS011;64574;48.506;-2.750;2023-08-31T14:47:16;3.78;;;1.20;;
75620;SDS011;64574;48.506;-2.750;2023-08-31T14:49:42;3.63;;;0.90;;
75620;SDS011;64574;48.506;-2.750;2023-08-31T14:52:07;4.50;;;0.73;;
75620;SDS011;64574;48.506;-2.750;2023-08-31T14:54:34;3.22;;;0.80;;
75620;SDS011;64574;48.506;-2.750;2023-08-31T14:56:59;4.75;;;0.93;;
75620;SDS011;64574;48.506;-2.750;2023-08-31T14:59:25;7.47;;;0.80;;
75620;SDS011;64574;48.506;-2.750;2023-08-31T15:01:51;2.65;;;0.82;;
75620;SDS011;64574;48.506;-2.750;2023-08-31T15:04:16;2.60;;;0.73;;
75620;SDS011;64574;48.506;-2.750;2023-08-31T15:06:42;3.93;;;0.80;;
75620;SDS011;64574;48.506;-2.750;2023-08-31T15:09:08;3.47;;;0.80;;
75620;SDS011;64574;48.506;-2.750;2023-08-31T15:11:37;3.17;;;0.85;;
75620;SDS011;64574;48.506;-2.750;2023-08-31T15:14:03;2.90;;;0.80;;
75620;SDS011;64574;48.506;-2.750;2023-08-31T15:16:29;2.80;;;0.70;;